Kristina — V7ZT9 — position and weather

sailwx.info

Track history (hours):
 
Tides and Currents Weather Stations Pressure Air Temp Water Temp Dewpoint Dewpoint Depression Visibility Wind Speed Wind Dir Waves Ship Positions

Kristina

Last reported at 2018-Apr-19 22:58 UTC. Time now 2018-Apr-19 23:22 UTC.
Position N 33°45' W 118°17'.

Length 270 m; draft 12.7 m.

Type: Ship (hazmat cat A). MMSI: 538004913.

Date/timePositionNaut miles runAvg speedWind from/ knotsBaromVisibWave heightAir tempDewpointWater temp
2018-Apr-19 22:58N 33°45' W 118°17'0 0.0
2018-Apr-19 22:29N 33°45' W 118°17'0 0.0
2018-Apr-19 21:58N 33°45' W 118°17'0 0.0
2018-Apr-19 21:28N 33°45' W 118°17'0 0.0
2018-Apr-19 20:58N 33°45' W 118°17'0 0.0
2018-Apr-19 20:29N 33°45' W 118°17'0 0.0
2018-Apr-19 19:58N 33°45' W 118°17'0 0.0
2018-Apr-19 19:29N 33°45' W 118°17'0 0.0
2018-Apr-19 18:59N 33°45' W 118°17'0 0.0
2018-Apr-19 18:29N 33°45' W 118°17'0 0.0
2018-Apr-19 17:59N 33°45' W 118°17'0 0.0
2018-Apr-19 17:26N 33°45' W 118°17'0 0.0
2018-Apr-19 16:59N 33°45' W 118°17'0 0.0
2018-Apr-19 16:29N 33°45' W 118°17'0 0.0
2018-Apr-19 15:59N 33°45' W 118°17'0 0.0
2018-Apr-19 15:29N 33°45' W 118°17'0 0.0
2018-Apr-19 14:58N 33°45' W 118°17'0 0.0
2018-Apr-19 14:29N 33°45' W 118°17'0 0.0
2018-Apr-19 13:56N 33°45' W 118°17'0 0.0
2018-Apr-19 13:28N 33°45' W 118°17'0 0.0
2018-Apr-19 12:59N 33°45' W 118°17'0 0.0
2018-Apr-19 12:29N 33°45' W 118°17'0 0.0
2018-Apr-19 11:59N 33°45' W 118°17'0 0.0
2018-Apr-19 11:28N 33°45' W 118°17'0 0.0
2018-Apr-19 10:58N 33°45' W 118°17'0 0.0
2018-Apr-19 10:29N 33°45' W 118°17'0 0.0
2018-Apr-19 09:59N 33°45' W 118°17'0 0.0
2018-Apr-19 09:29N 33°45' W 118°17'0 0.0
2018-Apr-19 08:58N 33°45' W 118°17'0 0.0
2018-Apr-19 08:28N 33°45' W 118°17'0 0.0
2018-Apr-19 07:58N 33°45' W 118°17'0 0.0
2018-Apr-19 07:28N 33°45' W 118°17'0 0.0
2018-Apr-19 06:58N 33°45' W 118°17'0 0.0
2018-Apr-19 06:28N 33°45' W 118°17'0 0.0
2018-Apr-19 05:55N 33°45' W 118°17'0 0.0
2018-Apr-19 05:28N 33°45' W 118°17'0 0.0
2018-Apr-19 04:58N 33°45' W 118°17'0 0.0
2018-Apr-19 04:28N 33°45' W 118°17'0 0.0
2018-Apr-19 03:58N 33°45' W 118°17'0 0.0
2018-Apr-19 03:28N 33°45' W 118°17'0 0.0
2018-Apr-19 02:58N 33°45' W 118°17'0 0.0
2018-Apr-19 02:25N 33°45' W 118°17'0 0.0
2018-Apr-19 01:58N 33°45' W 118°17'0 0.0
2018-Apr-19 01:28N 33°45' W 118°17'0 0.0
2018-Apr-19 00:58N 33°45' W 118°17'0 0.0
2018-Apr-19 00:28N 33°45' W 118°17'0 0.0
2018-Apr-18 23:58N 33°45' W 118°17'0 0.0
2018-Apr-18 23:30N 33°45' W 118°17'1 2.2
2018-Apr-18 23:00N 33°44' W 118°17'4 7.7
2018-Apr-18 22:30N 33°41' W 118°14'3 5.7
2018-Apr-18 22:00N 33°38' W 118°14'4 7.4
2018-Apr-18 21:30N 33°36' W 118°18'4 7.8
2018-Apr-18 21:01N 33°36' W 118°23'4 7.9
2018-Apr-18 20:30N 33°36' W 118°27'4 8.2
2018-Apr-18 20:00N 33°36' W 118°32'510.2
2018-Apr-18 19:30N 33°37' W 118°38'2010.0
2018-Apr-18 17:31N 33°37' W 119°02'0 9.9
2018-Apr-18 17:30N 33°37' W 119°02'510.0
2018-Apr-18 17:00N 33°37' W 119°08'4 8.2
2018-Apr-18 16:29N 33°37' W 119°13'613.4
2018-Apr-18 16:00N 33°37' W 119°21'713.6
2018-Apr-18 15:30N 33°37' W 119°29'713.6
2018-Apr-18 14:58N 33°37' W 119°38'613.9
2018-Apr-18 14:31N 33°37' W 119°46'713.7
2018-Apr-18 14:00N 33°37' W 119°54'714.2
2018-Apr-18 13:30N 33°38' W 120°03'714.1
2018-Apr-18 13:01N 33°38' W 120°11'714.1
2018-Apr-18 12:30N 33°38' W 120°20'714.1
2018-Apr-18 12:00N 33°38' W 120°28'714.0
2018-Apr-18 11:30N 33°38' W 120°37'714.2
2018-Apr-18 11:00N 33°38' W 120°45'714.2
2018-Apr-18 10:30N 33°38' W 120°54'714.2
2018-Apr-18 10:00N 33°38' W 121°02'814.2
2018-Apr-18 09:28N 33°38' W 121°11'613.9
2018-Apr-18 09:00N 33°38' W 121°19'713.9
2018-Apr-18 08:30N 33°38' W 121°27'  
Track history (hours):
 
Tides and Currents Weather Stations Pressure Air Temp Water Temp Dewpoint Dewpoint Depression Visibility Wind Speed Wind Dir Waves Ship Positions

Kristina

Last reported at 2018-Apr-19 22:58 UTC. Time now 2018-Apr-19 23:22 UTC.
Position N 33°45' W 118°17'.

Length 270 m; draft 12.7 m.

Type: Ship (hazmat cat A). MMSI: 538004913.

Date/timePositionNaut miles runAvg speedWind from/ knotsBaromVisibWave heightAir tempDewpointWater temp
2018-Apr-19 22:58N 33°45' W 118°17'0 0.0
2018-Apr-19 22:29N 33°45' W 118°17'0 0.0
2018-Apr-19 21:58N 33°45' W 118°17'0 0.0
2018-Apr-19 21:28N 33°45' W 118°17'0 0.0
2018-Apr-19 20:58N 33°45' W 118°17'0 0.0
2018-Apr-19 20:29N 33°45' W 118°17'0 0.0
2018-Apr-19 19:58N 33°45' W 118°17'0 0.0
2018-Apr-19 19:29N 33°45' W 118°17'0 0.0
2018-Apr-19 18:59N 33°45' W 118°17'0 0.0
2018-Apr-19 18:29N 33°45' W 118°17'0 0.0
2018-Apr-19 17:59N 33°45' W 118°17'0 0.0
2018-Apr-19 17:26N 33°45' W 118°17'0 0.0
2018-Apr-19 16:59N 33°45' W 118°17'0 0.0
2018-Apr-19 16:29N 33°45' W 118°17'0 0.0
2018-Apr-19 15:59N 33°45' W 118°17'0 0.0
2018-Apr-19 15:29N 33°45' W 118°17'0 0.0
2018-Apr-19 14:58N 33°45' W 118°17'0 0.0
2018-Apr-19 14:29N 33°45' W 118°17'0 0.0
2018-Apr-19 13:56N 33°45' W 118°17'0 0.0
2018-Apr-19 13:28N 33°45' W 118°17'0 0.0
2018-Apr-19 12:59N 33°45' W 118°17'0 0.0
2018-Apr-19 12:29N 33°45' W 118°17'0 0.0
2018-Apr-19 11:59N 33°45' W 118°17'0 0.0
2018-Apr-19 11:28N 33°45' W 118°17'0 0.0
2018-Apr-19 10:58N 33°45' W 118°17'0 0.0
2018-Apr-19 10:29N 33°45' W 118°17'0 0.0
2018-Apr-19 09:59N 33°45' W 118°17'0 0.0
2018-Apr-19 09:29N 33°45' W 118°17'0 0.0
2018-Apr-19 08:58N 33°45' W 118°17'0 0.0
2018-Apr-19 08:28N 33°45' W 118°17'0 0.0
2018-Apr-19 07:58N 33°45' W 118°17'0 0.0
2018-Apr-19 07:28N 33°45' W 118°17'0 0.0
2018-Apr-19 06:58N 33°45' W 118°17'0 0.0
2018-Apr-19 06:28N 33°45' W 118°17'0 0.0
2018-Apr-19 05:55N 33°45' W 118°17'0 0.0
2018-Apr-19 05:28N 33°45' W 118°17'0 0.0
2018-Apr-19 04:58N 33°45' W 118°17'0 0.0
2018-Apr-19 04:28N 33°45' W 118°17'0 0.0
2018-Apr-19 03:58N 33°45' W 118°17'0 0.0
2018-Apr-19 03:28N 33°45' W 118°17'0 0.0
2018-Apr-19 02:58N 33°45' W 118°17'0 0.0
2018-Apr-19 02:25N 33°45' W 118°17'0 0.0
2018-Apr-19 01:58N 33°45' W 118°17'0 0.0
2018-Apr-19 01:28N 33°45' W 118°17'0 0.0
2018-Apr-19 00:58N 33°45' W 118°17'0 0.0
2018-Apr-19 00:28N 33°45' W 118°17'0 0.0
2018-Apr-18 23:58N 33°45' W 118°17'0 0.0
2018-Apr-18 23:30N 33°45' W 118°17'1 2.2
2018-Apr-18 23:00N 33°44' W 118°17'4 7.7
2018-Apr-18 22:30N 33°41' W 118°14'3 5.7
2018-Apr-18 22:00N 33°38' W 118°14'4 7.4
2018-Apr-18 21:30N 33°36' W 118°18'4 7.8
2018-Apr-18 21:01N 33°36' W 118°23'4 7.9
2018-Apr-18 20:30N 33°36' W 118°27'4 8.2
2018-Apr-18 20:00N 33°36' W 118°32'510.2
2018-Apr-18 19:30N 33°37' W 118°38'2010.0
2018-Apr-18 17:31N 33°37' W 119°02'0 9.9
2018-Apr-18 17:30N 33°37' W 119°02'510.0
2018-Apr-18 17:00N 33°37' W 119°08'4 8.2
2018-Apr-18 16:29N 33°37' W 119°13'613.4
2018-Apr-18 16:00N 33°37' W 119°21'713.6
2018-Apr-18 15:30N 33°37' W 119°29'713.6
2018-Apr-18 14:58N 33°37' W 119°38'613.9
2018-Apr-18 14:31N 33°37' W 119°46'713.7
2018-Apr-18 14:00N 33°37' W 119°54'714.2
2018-Apr-18 13:30N 33°38' W 120°03'714.1
2018-Apr-18 13:01N 33°38' W 120°11'714.1
2018-Apr-18 12:30N 33°38' W 120°20'714.1
2018-Apr-18 12:00N 33°38' W 120°28'714.0
2018-Apr-18 11:30N 33°38' W 120°37'714.2
2018-Apr-18 11:00N 33°38' W 120°45'714.2
2018-Apr-18 10:30N 33°38' W 120°54'714.2
2018-Apr-18 10:00N 33°38' W 121°02'814.2
2018-Apr-18 09:28N 33°38' W 121°11'613.9
2018-Apr-18 09:00N 33°38' W 121°19'713.9
2018-Apr-18 08:30N 33°38' W 121°27'  

Dump ship's entire track history